sensor_id;sensor_type;location;lat;lon;timestamp;P1;durP1;ratioP1;P2;durP2;ratioP2
22030;SDS011;11179;52.106;21.024;2024-01-30T00:00:04;60.37;;;28.10;;
22030;SDS011;11179;52.106;21.024;2024-01-30T00:02:30;65.47;;;29.60;;
22030;SDS011;11179;52.106;21.024;2024-01-30T00:04:55;65.37;;;29.80;;
22030;SDS011;11179;52.106;21.024;2024-01-30T00:07:21;68.00;;;31.50;;
22030;SDS011;11179;52.106;21.024;2024-01-30T00:09:46;59.30;;;30.60;;
22030;SDS011;11179;52.106;21.024;2024-01-30T00:12:13;69.07;;;31.65;;
22030;SDS011;11179;52.106;21.024;2024-01-30T00:14:41;75.13;;;31.40;;
22030;SDS011;11179;52.106;21.024;2024-01-30T00:17:06;59.00;;;27.90;;
22030;SDS011;11179;52.106;21.024;2024-01-30T00:19:31;60.00;;;27.37;;
22030;SDS011;11179;52.106;21.024;2024-01-30T00:21:57;69.97;;;30.73;;
22030;SDS011;11179;52.106;21.024;2024-01-30T00:24:22;68.87;;;30.60;;
22030;SDS011;11179;52.106;21.024;2024-01-30T00:26:47;62.90;;;29.80;;
22030;SDS011;11179;52.106;21.024;2024-01-30T00:29:13;68.50;;;32.30;;
22030;SDS011;11179;52.106;21.024;2024-01-30T00:31:44;67.95;;;31.10;;
22030;SDS011;11179;52.106;21.024;2024-01-30T00:34:09;60.50;;;30.10;;
22030;SDS011;11179;52.106;21.024;2024-01-30T00:36:35;67.63;;;28.93;;
22030;SDS011;11179;52.106;21.024;2024-01-30T00:39:00;69.80;;;28.93;;
22030;SDS011;11179;52.106;21.024;2024-01-30T00:41:25;61.50;;;29.70;;
22030;SDS011;11179;52.106;21.024;2024-01-30T00:43:51;67.17;;;30.83;;
22030;SDS011;11179;52.106;21.024;2024-01-30T00:46:17;68.37;;;29.67;;
22030;SDS011;11179;52.106;21.024;2024-01-30T00:48:42;63.23;;;28.40;;
22030;SDS011;11179;52.106;21.024;2024-01-30T00:51:07;58.50;;;27.10;;
22030;SDS011;11179;52.106;21.024;2024-01-30T00:53:33;61.67;;;29.47;;
22030;SDS011;11179;52.106;21.024;2024-01-30T00:55:58;65.93;;;27.97;;
22030;SDS011;11179;52.106;21.024;2024-01-30T00:58:23;63.60;;;29.27;;
22030;SDS011;11179;52.106;21.024;2024-01-30T01:00:49;53.08;;;26.33;;
22030;SDS011;11179;52.106;21.024;2024-01-30T01:03:15;59.73;;;26.90;;
22030;SDS011;11179;52.106;21.024;2024-01-30T01:05:40;63.00;;;28.57;;
22030;SDS011;11179;52.106;21.024;2024-01-30T01:08:06;51.13;;;23.67;;
22030;SDS011;11179;52.106;21.024;2024-01-30T01:10:31;56.00;;;26.00;;
22030;SDS011;11179;52.106;21.024;2024-01-30T01:12:56;54.93;;;26.60;;
22030;SDS011;11179;52.106;21.024;2024-01-30T01:15:22;55.70;;;25.90;;
22030;SDS011;11179;52.106;21.024;2024-01-30T01:17:47;59.97;;;26.33;;
22030;SDS011;11179;52.106;21.024;2024-01-30T01:20:12;59.87;;;27.07;;
22030;SDS011;11179;52.106;21.024;2024-01-30T01:22:38;59.20;;;28.90;;
22030;SDS011;11179;52.106;21.024;2024-01-30T01:25:04;56.27;;;26.43;;
22030;SDS011;11179;52.106;21.024;2024-01-30T01:27:32;51.65;;;24.05;;
22030;SDS011;11179;52.106;21.024;2024-01-30T01:29:58;52.63;;;24.27;;
22030;SDS011;11179;52.106;21.024;2024-01-30T01:32:23;48.73;;;23.60;;
22030;SDS011;11179;52.106;21.024;2024-01-30T01:34:48;60.57;;;26.43;;
22030;SDS011;11179;52.106;21.024;2024-01-30T01:37:13;58.40;;;26.10;;
22030;SDS011;11179;52.106;21.024;2024-01-30T01:39:39;57.87;;;25.90;;
22030;SDS011;11179;52.106;21.024;2024-01-30T01:42:04;60.47;;;26.97;;
22030;SDS011;11179;52.106;21.024;2024-01-30T01:44:29;58.70;;;26.63;;
22030;SDS011;11179;52.106;21.024;2024-01-30T01:46:55;52.47;;;25.07;;
22030;SDS011;11179;52.106;21.024;2024-01-30T01:49:22;56.70;;;25.63;;
22030;SDS011;11179;52.106;21.024;2024-01-30T01:51:50;54.60;;;23.85;;
22030;SDS011;11179;52.106;21.024;2024-01-30T01:54:18;59.47;;;28.85;;
22030;SDS011;11179;52.106;21.024;2024-01-30T01:56:43;60.17;;;27.43;;
22030;SDS011;11179;52.106;21.024;2024-01-30T01:59:09;60.07;;;28.20;;
22030;SDS011;11179;52.106;21.024;2024-01-30T02:01:37;63.70;;;29.07;;
22030;SDS011;11179;52.106;21.024;2024-01-30T02:04:03;54.22;;;26.88;;
22030;SDS011;11179;52.106;21.024;2024-01-30T02:06:29;61.42;;;28.85;;
22030;SDS011;11179;52.106;21.024;2024-01-30T02:08:55;59.92;;;28.77;;
22030;SDS011;11179;52.106;21.024;2024-01-30T02:11:21;60.00;;;28.40;;
22030;SDS011;11179;52.106;21.024;2024-01-30T02:13:47;61.78;;;27.40;;
22030;SDS011;11179;52.106;21.024;2024-01-30T02:16:13;63.63;;;29.23;;
22030;SDS011;11179;52.106;21.024;2024-01-30T02:18:38;61.17;;;29.40;;
22030;SDS011;11179;52.106;21.024;2024-01-30T02:21:08;54.08;;;27.35;;
22030;SDS011;11179;52.106;21.024;2024-01-30T02:23:33;56.37;;;29.07;;
22030;SDS011;11179;52.106;21.024;2024-01-30T02:25:59;59.77;;;29.47;;
22030;SDS011;11179;52.106;21.024;2024-01-30T02:28:24;56.90;;;25.13;;
22030;SDS011;11179;52.106;21.024;2024-01-30T02:30:50;57.00;;;28.37;;
22030;SDS011;11179;52.106;21.024;2024-01-30T02:33:15;55.90;;;27.37;;
22030;SDS011;11179;52.106;21.024;2024-01-30T02:35:41;66.27;;;29.13;;
22030;SDS011;11179;52.106;21.024;2024-01-30T02:38:06;61.73;;;27.70;;
22030;SDS011;11179;52.106;21.024;2024-01-30T02:40:31;57.83;;;28.77;;
22030;SDS011;11179;52.106;21.024;2024-01-30T02:42:58;67.57;;;29.43;;
22030;SDS011;11179;52.106;21.024;2024-01-30T02:45:24;63.78;;;30.50;;
22030;SDS011;11179;52.106;21.024;2024-01-30T02:47:50;61.83;;;28.40;;
22030;SDS011;11179;52.106;21.024;2024-01-30T02:50:15;56.57;;;27.50;;
22030;SDS011;11179;52.106;21.024;2024-01-30T02:52:41;58.22;;;27.55;;
22030;SDS011;11179;52.106;21.024;2024-01-30T02:55:08;53.88;;;27.92;;
22030;SDS011;11179;52.106;21.024;2024-01-30T02:57:34;58.03;;;28.07;;
22030;SDS011;11179;52.106;21.024;2024-01-30T02:59:59;63.93;;;28.23;;
22030;SDS011;11179;52.106;21.024;2024-01-30T03:02:25;63.17;;;28.30;;
22030;SDS011;11179;52.106;21.024;2024-01-30T03:04:50;60.90;;;28.77;;
22030;SDS011;11179;52.106;21.024;2024-01-30T03:07:15;58.47;;;27.00;;
22030;SDS011;11179;52.106;21.024;2024-01-30T03:09:41;52.43;;;25.20;;
22030;SDS011;11179;52.106;21.024;2024-01-30T03:12:10;58.67;;;29.55;;
22030;SDS011;11179;52.106;21.024;2024-01-30T03:14:35;58.57;;;27.70;;
22030;SDS011;11179;52.106;21.024;2024-01-30T03:17:00;79.90;;;28.90;;
22030;SDS011;11179;52.106;21.024;2024-01-30T03:19:26;51.67;;;27.77;;
22030;SDS011;11179;52.106;21.024;2024-01-30T03:21:51;58.20;;;28.10;;
22030;SDS011;11179;52.106;21.024;2024-01-30T03:24:16;59.60;;;26.10;;
22030;SDS011;11179;52.106;21.024;2024-01-30T03:26:42;56.70;;;26.27;;
22030;SDS011;11179;52.106;21.024;2024-01-30T03:29:08;59.30;;;27.17;;
22030;SDS011;11179;52.106;21.024;2024-01-30T03:31:33;57.43;;;26.30;;
22030;SDS011;11179;52.106;21.024;2024-01-30T03:33:59;50.00;;;24.23;;
22030;SDS011;11179;52.106;21.024;2024-01-30T03:36:24;54.73;;;26.20;;
22030;SDS011;11179;52.106;21.024;2024-01-30T03:38:49;60.13;;;28.47;;
22030;SDS011;11179;52.106;21.024;2024-01-30T03:41:15;59.20;;;28.80;;
22030;SDS011;11179;52.106;21.024;2024-01-30T03:43:40;56.53;;;26.93;;
22030;SDS011;11179;52.106;21.024;2024-01-30T03:46:05;54.10;;;26.67;;
22030;SDS011;11179;52.106;21.024;2024-01-30T03:48:31;56.60;;;26.30;;
22030;SDS011;11179;52.106;21.024;2024-01-30T03:50:56;60.90;;;27.73;;
22030;SDS011;11179;52.106;21.024;2024-01-30T03:53:22;54.23;;;27.23;;
22030;SDS011;11179;52.106;21.024;2024-01-30T03:55:47;50.27;;;24.30;;
22030;SDS011;11179;52.106;21.024;2024-01-30T03:58:12;57.30;;;28.57;;
22030;SDS011;11179;52.106;21.024;2024-01-30T04:00:38;56.77;;;25.60;;
22030;SDS011;11179;52.106;21.024;2024-01-30T04:03:03;51.50;;;24.57;;
22030;SDS011;11179;52.106;21.024;2024-01-30T04:05:29;51.10;;;26.67;;
22030;SDS011;11179;52.106;21.024;2024-01-30T04:07:54;51.57;;;24.70;;
22030;SDS011;11179;52.106;21.024;2024-01-30T04:10:19;55.27;;;26.13;;
22030;SDS011;11179;52.106;21.024;2024-01-30T04:12:45;53.73;;;26.70;;
22030;SDS011;11179;52.106;21.024;2024-01-30T04:15:10;55.90;;;25.43;;
22030;SDS011;11179;52.106;21.024;2024-01-30T04:17:35;53.00;;;26.47;;
22030;SDS011;11179;52.106;21.024;2024-01-30T04:20:01;57.00;;;26.73;;
22030;SDS011;11179;52.106;21.024;2024-01-30T04:22:26;56.10;;;25.43;;
22030;SDS011;11179;52.106;21.024;2024-01-30T04:24:51;53.10;;;25.27;;
22030;SDS011;11179;52.106;21.024;2024-01-30T04:27:16;57.97;;;27.80;;
22030;SDS011;11179;52.106;21.024;2024-01-30T04:29:42;57.90;;;27.50;;
22030;SDS011;11179;52.106;21.024;2024-01-30T04:32:07;49.57;;;24.67;;
22030;SDS011;11179;52.106;21.024;2024-01-30T04:34:33;52.23;;;25.67;;
22030;SDS011;11179;52.106;21.024;2024-01-30T04:36:58;53.90;;;26.60;;
22030;SDS011;11179;52.106;21.024;2024-01-30T04:39:23;50.80;;;26.80;;
22030;SDS011;11179;52.106;21.024;2024-01-30T04:41:49;54.57;;;27.03;;
22030;SDS011;11179;52.106;21.024;2024-01-30T04:44:14;60.00;;;27.20;;
22030;SDS011;11179;52.106;21.024;2024-01-30T04:46:39;65.10;;;31.77;;
22030;SDS011;11179;52.106;21.024;2024-01-30T04:49:05;67.23;;;32.83;;
22030;SDS011;11179;52.106;21.024;2024-01-30T04:51:32;78.95;;;37.42;;
22030;SDS011;11179;52.106;21.024;2024-01-30T04:53:58;68.93;;;34.20;;
22030;SDS011;11179;52.106;21.024;2024-01-30T04:56:23;72.47;;;32.67;;
22030;SDS011;11179;52.106;21.024;2024-01-30T04:58:48;69.50;;;31.53;;
22030;SDS011;11179;52.106;21.024;2024-01-30T05:01:17;80.40;;;36.80;;
22030;SDS011;11179;52.106;21.024;2024-01-30T05:03:42;64.30;;;30.85;;
22030;SDS011;11179;52.106;21.024;2024-01-30T05:06:08;72.27;;;33.87;;
22030;SDS011;11179;52.106;21.024;2024-01-30T05:08:33;69.03;;;33.73;;
22030;SDS011;11179;52.106;21.024;2024-01-30T05:11:01;66.00;;;30.67;;
22030;SDS011;11179;52.106;21.024;2024-01-30T05:13:28;70.82;;;31.27;;
22030;SDS011;11179;52.106;21.024;2024-01-30T05:15:55;67.03;;;30.58;;
22030;SDS011;11179;52.106;21.024;2024-01-30T05:18:20;69.13;;;31.73;;
22030;SDS011;11179;52.106;21.024;2024-01-30T05:20:45;64.83;;;28.60;;
22030;SDS011;11179;52.106;21.024;2024-01-30T05:23:10;56.90;;;27.30;;
22030;SDS011;11179;52.106;21.024;2024-01-30T05:25:36;58.70;;;27.50;;
22030;SDS011;11179;52.106;21.024;2024-01-30T05:28:01;58.40;;;27.70;;
22030;SDS011;11179;52.106;21.024;2024-01-30T05:30:26;65.67;;;27.73;;
22030;SDS011;11179;52.106;21.024;2024-01-30T05:32:52;60.53;;;27.23;;
22030;SDS011;11179;52.106;21.024;2024-01-30T05:35:17;60.23;;;28.13;;
22030;SDS011;11179;52.106;21.024;2024-01-30T05:37:43;63.03;;;29.80;;
22030;SDS011;11179;52.106;21.024;2024-01-30T05:40:08;68.53;;;30.33;;
22030;SDS011;11179;52.106;21.024;2024-01-30T05:42:34;66.05;;;29.85;;
22030;SDS011;11179;52.106;21.024;2024-01-30T05:44:59;69.00;;;28.10;;
22030;SDS011;11179;52.106;21.024;2024-01-30T05:47:25;62.03;;;30.03;;
22030;SDS011;11179;52.106;21.024;2024-01-30T05:49:50;59.23;;;26.77;;
22030;SDS011;11179;52.106;21.024;2024-01-30T05:52:15;64.20;;;30.13;;
22030;SDS011;11179;52.106;21.024;2024-01-30T05:54:41;56.13;;;26.80;;
22030;SDS011;11179;52.106;21.024;2024-01-30T05:57:06;66.23;;;28.70;;
22030;SDS011;11179;52.106;21.024;2024-01-30T05:59:32;61.60;;;26.37;;
22030;SDS011;11179;52.106;21.024;2024-01-30T06:01:57;69.70;;;26.50;;
22030;SDS011;11179;52.106;21.024;2024-01-30T06:04:23;59.23;;;25.10;;
22030;SDS011;11179;52.106;21.024;2024-01-30T06:06:48;62.20;;;27.83;;
22030;SDS011;11179;52.106;21.024;2024-01-30T06:09:13;66.77;;;29.27;;
22030;SDS011;11179;52.106;21.024;2024-01-30T06:11:39;55.10;;;26.90;;
22030;SDS011;11179;52.106;21.024;2024-01-30T06:14:04;56.37;;;27.10;;
22030;SDS011;11179;52.106;21.024;2024-01-30T06:16:30;52.50;;;24.60;;
22030;SDS011;11179;52.106;21.024;2024-01-30T06:18:56;58.67;;;25.67;;
22030;SDS011;11179;52.106;21.024;2024-01-30T06:21:21;56.50;;;24.90;;
22030;SDS011;11179;52.106;21.024;2024-01-30T06:23:47;52.83;;;24.53;;
22030;SDS011;11179;52.106;21.024;2024-01-30T06:26:12;53.13;;;23.33;;
22030;SDS011;11179;52.106;21.024;2024-01-30T06:28:38;56.20;;;26.03;;
22030;SDS011;11179;52.106;21.024;2024-01-30T06:31:03;54.50;;;25.57;;
22030;SDS011;11179;52.106;21.024;2024-01-30T06:33:28;52.27;;;24.17;;
22030;SDS011;11179;52.106;21.024;2024-01-30T06:35:54;49.70;;;24.37;;
22030;SDS011;11179;52.106;21.024;2024-01-30T06:38:19;57.77;;;25.43;;
22030;SDS011;11179;52.106;21.024;2024-01-30T06:40:44;53.90;;;24.10;;
22030;SDS011;11179;52.106;21.024;2024-01-30T06:43:10;54.93;;;23.90;;
22030;SDS011;11179;52.106;21.024;2024-01-30T06:45:36;56.80;;;25.42;;
22030;SDS011;11179;52.106;21.024;2024-01-30T06:48:02;55.13;;;25.10;;
22030;SDS011;11179;52.106;21.024;2024-01-30T06:50:27;55.63;;;25.30;;
22030;SDS011;11179;52.106;21.024;2024-01-30T06:52:53;56.03;;;25.50;;
22030;SDS011;11179;52.106;21.024;2024-01-30T06:55:18;50.87;;;24.87;;
22030;SDS011;11179;52.106;21.024;2024-01-30T06:57:43;51.63;;;23.93;;
22030;SDS011;11179;52.106;21.024;2024-01-30T07:00:09;56.27;;;24.83;;
22030;SDS011;11179;52.106;21.024;2024-01-30T07:02:35;51.97;;;22.27;;
22030;SDS011;11179;52.106;21.024;2024-01-30T07:05:00;51.57;;;22.73;;
22030;SDS011;11179;52.106;21.024;2024-01-30T07:07:25;46.23;;;22.80;;
22030;SDS011;11179;52.106;21.024;2024-01-30T07:09:51;48.87;;;21.07;;
22030;SDS011;11179;52.106;21.024;2024-01-30T07:12:21;53.90;;;23.38;;
22030;SDS011;11179;52.106;21.024;2024-01-30T07:14:47;53.47;;;22.13;;
22030;SDS011;11179;52.106;21.024;2024-01-30T07:17:13;56.27;;;23.70;;
22030;SDS011;11179;52.106;21.024;2024-01-30T07:19:38;48.77;;;21.77;;
22030;SDS011;11179;52.106;21.024;2024-01-30T07:22:04;46.47;;;20.93;;
22030;SDS011;11179;52.106;21.024;2024-01-30T07:24:29;49.13;;;21.07;;
22030;SDS011;11179;52.106;21.024;2024-01-30T07:26:54;46.43;;;19.57;;
22030;SDS011;11179;52.106;21.024;2024-01-30T07:29:20;48.10;;;20.43;;
22030;SDS011;11179;52.106;21.024;2024-01-30T07:31:45;48.83;;;20.50;;
22030;SDS011;11179;52.106;21.024;2024-01-30T07:34:10;51.03;;;22.90;;
22030;SDS011;11179;52.106;21.024;2024-01-30T07:36:36;42.77;;;19.80;;
22030;SDS011;11179;52.106;21.024;2024-01-30T07:39:01;47.50;;;21.10;;
22030;SDS011;11179;52.106;21.024;2024-01-30T07:41:27;42.83;;;20.27;;
22030;SDS011;11179;52.106;21.024;2024-01-30T07:43:52;47.97;;;20.53;;
22030;SDS011;11179;52.106;21.024;2024-01-30T07:46:18;52.73;;;21.33;;
22030;SDS011;11179;52.106;21.024;2024-01-30T07:48:43;56.37;;;20.40;;
22030;SDS011;11179;52.106;21.024;2024-01-30T07:51:09;55.03;;;21.20;;
22030;SDS011;11179;52.106;21.024;2024-01-30T07:53:34;49.33;;;19.77;;
22030;SDS011;11179;52.106;21.024;2024-01-30T07:56:00;41.07;;;19.17;;
22030;SDS011;11179;52.106;21.024;2024-01-30T07:58:25;41.87;;;19.00;;
22030;SDS011;11179;52.106;21.024;2024-01-30T08:00:52;43.57;;;17.47;;
22030;SDS011;11179;52.106;21.024;2024-01-30T08:03:18;47.63;;;19.70;;
22030;SDS011;11179;52.106;21.024;2024-01-30T08:05:43;47.23;;;19.23;;
22030;SDS011;11179;52.106;21.024;2024-01-30T08:08:09;43.43;;;19.30;;
22030;SDS011;11179;52.106;21.024;2024-01-30T08:10:34;46.97;;;19.53;;
22030;SDS011;11179;52.106;21.024;2024-01-30T08:12:59;42.43;;;18.80;;
22030;SDS011;11179;52.106;21.024;2024-01-30T08:15:25;43.87;;;19.73;;
22030;SDS011;11179;52.106;21.024;2024-01-30T08:17:50;45.87;;;19.60;;
22030;SDS011;11179;52.106;21.024;2024-01-30T08:20:20;43.20;;;18.40;;
22030;SDS011;11179;52.106;21.024;2024-01-30T08:22:46;46.67;;;19.50;;
22030;SDS011;11179;52.106;21.024;2024-01-30T08:25:11;40.03;;;17.50;;
22030;SDS011;11179;52.106;21.024;2024-01-30T08:27:36;45.83;;;20.23;;
22030;SDS011;11179;52.106;21.024;2024-01-30T08:30:03;46.80;;;17.57;;
22030;SDS011;11179;52.106;21.024;2024-01-30T08:32:30;38.07;;;17.40;;
22030;SDS011;11179;52.106;21.024;2024-01-30T08:34:55;43.43;;;18.17;;
22030;SDS011;11179;52.106;21.024;2024-01-30T08:37:20;37.87;;;17.97;;
22030;SDS011;11179;52.106;21.024;2024-01-30T08:39:48;41.82;;;17.82;;
22030;SDS011;11179;52.106;21.024;2024-01-30T08:42:13;48.27;;;20.00;;
22030;SDS011;11179;52.106;21.024;2024-01-30T08:44:38;39.57;;;17.47;;
22030;SDS011;11179;52.106;21.024;2024-01-30T08:47:04;44.20;;;17.27;;
22030;SDS011;11179;52.106;21.024;2024-01-30T08:49:29;36.60;;;17.80;;
22030;SDS011;11179;52.106;21.024;2024-01-30T08:51:55;44.03;;;18.00;;
22030;SDS011;11179;52.106;21.024;2024-01-30T08:54:20;39.40;;;17.43;;
22030;SDS011;11179;52.106;21.024;2024-01-30T08:56:45;48.17;;;17.70;;
22030;SDS011;11179;52.106;21.024;2024-01-30T08:59:11;43.90;;;17.67;;
22030;SDS011;11179;52.106;21.024;2024-01-30T09:01:36;39.10;;;17.43;;
22030;SDS011;11179;52.106;21.024;2024-01-30T09:04:01;47.57;;;19.50;;
22030;SDS011;11179;52.106;21.024;2024-01-30T09:06:27;45.33;;;18.80;;
22030;SDS011;11179;52.106;21.024;2024-01-30T09:08:53;55.37;;;19.30;;
22030;SDS011;11179;52.106;21.024;2024-01-30T09:11:18;40.90;;;16.43;;
22030;SDS011;11179;52.106;21.024;2024-01-30T09:13:44;41.40;;;16.40;;
22030;SDS011;11179;52.106;21.024;2024-01-30T09:16:09;41.23;;;17.10;;
22030;SDS011;11179;52.106;21.024;2024-01-30T09:18:34;39.63;;;17.00;;
22030;SDS011;11179;52.106;21.024;2024-01-30T09:21:00;42.07;;;16.60;;
22030;SDS011;11179;52.106;21.024;2024-01-30T09:23:26;47.33;;;16.67;;
22030;SDS011;11179;52.106;21.024;2024-01-30T09:25:52;39.00;;;15.67;;
22030;SDS011;11179;52.106;21.024;2024-01-30T09:28:18;41.70;;;16.73;;
22030;SDS011;11179;52.106;21.024;2024-01-30T09:30:43;38.63;;;16.73;;
22030;SDS011;11179;52.106;21.024;2024-01-30T09:33:08;40.73;;;16.13;;
22030;SDS011;11179;52.106;21.024;2024-01-30T09:35:34;37.67;;;16.23;;
22030;SDS011;11179;52.106;21.024;2024-01-30T09:38:01;38.80;;;15.53;;
22030;SDS011;11179;52.106;21.024;2024-01-30T09:40:26;37.00;;;14.03;;
22030;SDS011;11179;52.106;21.024;2024-01-30T09:42:52;41.33;;;16.23;;
22030;SDS011;11179;52.106;21.024;2024-01-30T09:45:19;34.77;;;14.97;;
22030;SDS011;11179;52.106;21.024;2024-01-30T09:47:44;54.50;;;16.87;;
22030;SDS011;11179;52.106;21.024;2024-01-30T09:50:11;44.07;;;15.13;;
22030;SDS011;11179;52.106;21.024;2024-01-30T09:52:38;35.47;;;13.97;;
22030;SDS011;11179;52.106;21.024;2024-01-30T09:55:04;35.00;;;14.97;;
22030;SDS011;11179;52.106;21.024;2024-01-30T09:57:30;39.40;;;15.80;;
22030;SDS011;11179;52.106;21.024;2024-01-30T09:59:56;36.63;;;16.13;;
22030;SDS011;11179;52.106;21.024;2024-01-30T10:02:21;33.23;;;14.37;;
22030;SDS011;11179;52.106;21.024;2024-01-30T10:04:47;34.40;;;14.00;;
22030;SDS011;11179;52.106;21.024;2024-01-30T10:07:14;45.20;;;15.47;;
22030;SDS011;11179;52.106;21.024;2024-01-30T10:09:40;38.53;;;15.03;;
22030;SDS011;11179;52.106;21.024;2024-01-30T10:12:05;37.63;;;13.70;;
22030;SDS011;11179;52.106;21.024;2024-01-30T10:14:31;39.47;;;14.70;;
22030;SDS011;11179;52.106;21.024;2024-01-30T10:17:00;34.40;;;14.93;;
22030;SDS011;11179;52.106;21.024;2024-01-30T10:19:26;42.43;;;15.33;;
22030;SDS011;11179;52.106;21.024;2024-01-30T10:21:51;32.43;;;13.50;;
22030;SDS011;11179;52.106;21.024;2024-01-30T10:24:17;35.00;;;15.07;;
22030;SDS011;11179;52.106;21.024;2024-01-30T10:26:45;42.10;;;15.50;;
22030;SDS011;11179;52.106;21.024;2024-01-30T10:29:12;33.60;;;14.88;;
22030;SDS011;11179;52.106;21.024;2024-01-30T10:31:37;45.33;;;15.27;;
22030;SDS011;11179;52.106;21.024;2024-01-30T10:34:02;51.10;;;16.37;;
22030;SDS011;11179;52.106;21.024;2024-01-30T10:36:28;39.00;;;14.70;;
22030;SDS011;11179;52.106;21.024;2024-01-30T10:38:55;40.92;;;14.60;;
22030;SDS011;11179;52.106;21.024;2024-01-30T10:41:27;40.80;;;15.27;;
22030;SDS011;11179;52.106;21.024;2024-01-30T10:44:33;41.93;;;14.13;;
22030;SDS011;11179;52.106;21.024;2024-01-30T10:46:53;34.77;;;14.03;;
22030;SDS011;11179;52.106;21.024;2024-01-30T10:49:25;43.17;;;14.23;;
22030;SDS011;11179;52.106;21.024;2024-01-30T10:51:51;28.03;;;13.33;;
22030;SDS011;11179;52.106;21.024;2024-01-30T10:54:17;32.47;;;13.57;;
22030;SDS011;11179;52.106;21.024;2024-01-30T10:56:45;35.50;;;15.27;;
22030;SDS011;11179;52.106;21.024;2024-01-30T10:59:11;34.00;;;15.03;;
22030;SDS011;11179;52.106;21.024;2024-01-30T11:01:38;33.30;;;13.73;;
22030;SDS011;11179;52.106;21.024;2024-01-30T11:04:04;36.20;;;14.93;;
22030;SDS011;11179;52.106;21.024;2024-01-30T11:06:29;40.07;;;14.20;;
22030;SDS011;11179;52.106;21.024;2024-01-30T11:09:01;51.87;;;17.40;;
22030;SDS011;11179;52.106;21.024;2024-01-30T11:14:37;35.27;;;13.53;;
22030;SDS011;11179;52.106;21.024;2024-01-30T11:17:05;38.63;;;15.20;;
22030;SDS011;11179;52.106;21.024;2024-01-30T11:19:31;33.97;;;14.63;;
22030;SDS011;11179;52.106;21.024;2024-01-30T11:21:57;32.93;;;13.03;;
22030;SDS011;11179;52.106;21.024;2024-01-30T11:24:25;61.47;;;16.10;;
22030;SDS011;11179;52.106;21.024;2024-01-30T11:26:57;37.40;;;14.20;;
22030;SDS011;11179;52.106;21.024;2024-01-30T11:29:29;33.87;;;14.33;;
22030;SDS011;11179;52.106;21.024;2024-01-30T11:31:56;38.17;;;14.30;;
22030;SDS011;11179;52.106;21.024;2024-01-30T11:34:24;38.30;;;14.23;;
22030;SDS011;11179;52.106;21.024;2024-01-30T11:36:55;39.30;;;15.07;;
22030;SDS011;11179;52.106;21.024;2024-01-30T11:39:25;32.57;;;13.90;;
22030;SDS011;11179;52.106;21.024;2024-01-30T11:41:51;41.57;;;13.93;;
22030;SDS011;11179;52.106;21.024;2024-01-30T11:44:18;29.87;;;13.63;;
22030;SDS011;11179;52.106;21.024;2024-01-30T11:46:45;32.80;;;13.57;;
22030;SDS011;11179;52.106;21.024;2024-01-30T11:49:12;27.10;;;12.53;;
22030;SDS011;11179;52.106;21.024;2024-01-30T11:51:37;35.40;;;13.50;;
22030;SDS011;11179;52.106;21.024;2024-01-30T11:54:03;35.70;;;13.73;;
22030;SDS011;11179;52.106;21.024;2024-01-30T11:56:28;37.23;;;14.33;;
22030;SDS011;11179;52.106;21.024;2024-01-30T11:58:53;37.60;;;14.87;;
22030;SDS011;11179;52.106;21.024;2024-01-30T12:01:19;36.47;;;13.17;;
22030;SDS011;11179;52.106;21.024;2024-01-30T12:03:51;32.33;;;14.10;;
22030;SDS011;11179;52.106;21.024;2024-01-30T12:06:17;31.67;;;13.17;;
22030;SDS011;11179;52.106;21.024;2024-01-30T12:08:42;28.67;;;13.03;;
22030;SDS011;11179;52.106;21.024;2024-01-30T12:11:07;31.60;;;12.10;;
22030;SDS011;11179;52.106;21.024;2024-01-30T12:13:33;30.70;;;12.47;;
22030;SDS011;11179;52.106;21.024;2024-01-30T12:15:59;26.77;;;12.17;;
22030;SDS011;11179;52.106;21.024;2024-01-30T12:18:26;29.50;;;11.97;;
22030;SDS011;11179;52.106;21.024;2024-01-30T12:21:00;27.80;;;11.63;;
22030;SDS011;11179;52.106;21.024;2024-01-30T12:23:26;29.83;;;12.50;;
22030;SDS011;11179;52.106;21.024;2024-01-30T12:25:52;29.43;;;11.73;;
22030;SDS011;11179;52.106;21.024;2024-01-30T12:28:18;32.73;;;13.30;;
22030;SDS011;11179;52.106;21.024;2024-01-30T12:30:45;34.90;;;12.97;;
22030;SDS011;11179;52.106;21.024;2024-01-30T12:33:15;31.43;;;12.27;;
22030;SDS011;11179;52.106;21.024;2024-01-30T12:35:45;26.80;;;12.20;;
22030;SDS011;11179;52.106;21.024;2024-01-30T12:38:11;35.00;;;11.33;;
22030;SDS011;11179;52.106;21.024;2024-01-30T12:40:36;30.47;;;11.80;;
22030;SDS011;11179;52.106;21.024;2024-01-30T12:43:01;29.50;;;10.97;;
22030;SDS011;11179;52.106;21.024;2024-01-30T12:45:28;27.83;;;11.60;;
22030;SDS011;11179;52.106;21.024;2024-01-30T12:47:53;30.67;;;12.70;;
22030;SDS011;11179;52.106;21.024;2024-01-30T12:50:18;31.30;;;11.90;;
22030;SDS011;11179;52.106;21.024;2024-01-30T12:52:44;33.43;;;11.47;;
22030;SDS011;11179;52.106;21.024;2024-01-30T12:55:10;26.33;;;11.17;;
22030;SDS011;11179;52.106;21.024;2024-01-30T12:57:35;34.33;;;12.13;;
22030;SDS011;11179;52.106;21.024;2024-01-30T13:00:00;38.20;;;13.00;;
22030;SDS011;11179;52.106;21.024;2024-01-30T13:02:26;31.00;;;11.20;;
22030;SDS011;11179;52.106;21.024;2024-01-30T13:04:55;27.33;;;11.00;;
22030;SDS011;11179;52.106;21.024;2024-01-30T13:07:20;31.60;;;11.47;;
22030;SDS011;11179;52.106;21.024;2024-01-30T13:09:45;29.77;;;11.77;;
22030;SDS011;11179;52.106;21.024;2024-01-30T13:12:11;44.23;;;13.67;;
22030;SDS011;11179;52.106;21.024;2024-01-30T13:14:36;28.00;;;10.50;;
22030;SDS011;11179;52.106;21.024;2024-01-30T13:17:01;31.57;;;11.97;;
22030;SDS011;11179;52.106;21.024;2024-01-30T13:19:28;35.33;;;12.23;;
22030;SDS011;11179;52.106;21.024;2024-01-30T13:21:53;40.33;;;12.77;;
22030;SDS011;11179;52.106;21.024;2024-01-30T13:24:18;29.17;;;11.20;;
22030;SDS011;11179;52.106;21.024;2024-01-30T13:26:46;42.53;;;11.43;;
22030;SDS011;11179;52.106;21.024;2024-01-30T13:29:11;40.23;;;12.50;;
22030;SDS011;11179;52.106;21.024;2024-01-30T13:31:37;41.63;;;13.03;;
22030;SDS011;11179;52.106;21.024;2024-01-30T13:34:04;29.57;;;11.63;;
22030;SDS011;11179;52.106;21.024;2024-01-30T13:36:31;37.80;;;12.50;;
22030;SDS011;11179;52.106;21.024;2024-01-30T13:38:56;32.73;;;13.27;;
22030;SDS011;11179;52.106;21.024;2024-01-30T13:41:21;41.53;;;13.13;;
22030;SDS011;11179;52.106;21.024;2024-01-30T13:43:47;27.07;;;12.00;;
22030;SDS011;11179;52.106;21.024;2024-01-30T13:46:13;41.17;;;13.30;;
22030;SDS011;11179;52.106;21.024;2024-01-30T13:48:39;34.47;;;13.37;;
22030;SDS011;11179;52.106;21.024;2024-01-30T13:51:04;31.67;;;12.47;;
22030;SDS011;11179;52.106;21.024;2024-01-30T13:53:30;32.93;;;13.40;;
22030;SDS011;11179;52.106;21.024;2024-01-30T13:55:55;38.37;;;13.10;;
22030;SDS011;11179;52.106;21.024;2024-01-30T13:58:20;39.07;;;13.50;;
22030;SDS011;11179;52.106;21.024;2024-01-30T14:00:46;73.27;;;17.10;;
22030;SDS011;11179;52.106;21.024;2024-01-30T14:03:11;50.00;;;13.83;;